sensor_id;sensor_type;location;lat;lon;timestamp;temperature;humidity
21033;DHT22;10675;47.976;7.824;2023-05-10T00:00:00;13.90;99.90
21033;DHT22;10675;47.976;7.824;2023-05-10T00:02:25;13.90;99.90
21033;DHT22;10675;47.976;7.824;2023-05-10T00:04:51;13.80;99.90
21033;DHT22;10675;47.976;7.824;2023-05-10T00:07:17;13.80;99.90
21033;DHT22;10675;47.976;7.824;2023-05-10T00:09:43;13.80;99.90
21033;DHT22;10675;47.976;7.824;2023-05-10T00:12:09;13.80;99.90
21033;DHT22;10675;47.976;7.824;2023-05-10T00:14:34;13.80;99.90
21033;DHT22;10675;47.976;7.824;2023-05-10T00:17:00;13.80;99.90
21033;DHT22;10675;47.976;7.824;2023-05-10T00:19:26;13.70;99.90
21033;DHT22;10675;47.976;7.824;2023-05-10T00:21:51;13.70;99.90
21033;DHT22;10675;47.976;7.824;2023-05-10T00:24:17;13.80;99.90
21033;DHT22;10675;47.976;7.824;2023-05-10T00:26:42;13.70;99.90
21033;DHT22;10675;47.976;7.824;2023-05-10T00:29:08;13.70;99.90
21033;DHT22;10675;47.976;7.824;2023-05-10T00:31:33;13.70;99.90
21033;DHT22;10675;47.976;7.824;2023-05-10T00:33:59;13.70;99.90
21033;DHT22;10675;47.976;7.824;2023-05-10T00:36:24;13.60;99.90
21033;DHT22;10675;47.976;7.824;2023-05-10T00:38:50;13.60;99.90
21033;DHT22;10675;47.976;7.824;2023-05-10T00:41:15;13.60;99.90
21033;DHT22;10675;47.976;7.824;2023-05-10T00:43:41;13.50;99.90
21033;DHT22;10675;47.976;7.824;2023-05-10T00:46:07;13.50;99.90
21033;DHT22;10675;47.976;7.824;2023-05-10T00:48:33;13.50;99.90
21033;DHT22;10675;47.976;7.824;2023-05-10T00:51:01;13.50;99.90
21033;DHT22;10675;47.976;7.824;2023-05-10T00:53:26;13.50;99.90
21033;DHT22;10675;47.976;7.824;2023-05-10T00:55:52;13.50;99.90
21033;DHT22;10675;47.976;7.824;2023-05-10T00:58:18;13.50;99.90
21033;DHT22;10675;47.976;7.824;2023-05-10T01:00:46;13.40;99.90
21033;DHT22;10675;47.976;7.824;2023-05-10T01:03:12;13.50;99.90
21033;DHT22;10675;47.976;7.824;2023-05-10T01:05:38;13.50;99.90
21033;DHT22;10675;47.976;7.824;2023-05-10T01:08:03;13.40;99.90
21033;DHT22;10675;47.976;7.824;2023-05-10T01:10:30;13.40;99.90
21033;DHT22;10675;47.976;7.824;2023-05-10T01:12:56;13.40;99.90
21033;DHT22;10675;47.976;7.824;2023-05-10T01:15:22;13.40;99.90
21033;DHT22;10675;47.976;7.824;2023-05-10T01:17:48;13.50;99.90
21033;DHT22;10675;47.976;7.824;2023-05-10T01:20:14;13.50;99.90
21033;DHT22;10675;47.976;7.824;2023-05-10T01:34:35;13.50;99.90
21033;DHT22;10675;47.976;7.824;2023-05-10T01:37:10;13.50;99.90
21033;DHT22;10675;47.976;7.824;2023-05-10T01:39:49;13.50;99.90
21033;DHT22;10675;47.976;7.824;2023-05-10T01:42:29;13.50;99.90
21033;DHT22;10675;47.976;7.824;2023-05-10T01:47:42;13.50;99.90
21033;DHT22;10675;47.976;7.824;2023-05-10T01:50:29;13.50;99.90
21033;DHT22;10675;47.976;7.824;2023-05-10T01:52:58;13.50;99.90
21033;DHT22;10675;47.976;7.824;2023-05-10T01:55:27;13.50;99.90
21033;DHT22;10675;47.976;7.824;2023-05-10T01:58:01;13.50;99.90
21033;DHT22;10675;47.976;7.824;2023-05-10T02:00:28;13.60;99.90
21033;DHT22;10675;47.976;7.824;2023-05-10T02:02:55;13.50;99.90
21033;DHT22;10675;47.976;7.824;2023-05-10T02:05:22;13.50;99.90
21033;DHT22;10675;47.976;7.824;2023-05-10T02:07:49;13.50;99.90
21033;DHT22;10675;47.976;7.824;2023-05-10T02:10:15;13.50;99.90
21033;DHT22;10675;47.976;7.824;2023-05-10T02:12:43;13.50;99.90
21033;DHT22;10675;47.976;7.824;2023-05-10T02:15:11;13.50;99.90
21033;DHT22;10675;47.976;7.824;2023-05-10T02:17:37;13.50;99.90
21033;DHT22;10675;47.976;7.824;2023-05-10T02:20:06;13.50;99.90
21033;DHT22;10675;47.976;7.824;2023-05-10T02:22:33;13.50;99.90
21033;DHT22;10675;47.976;7.824;2023-05-10T02:25:00;13.50;99.90
21033;DHT22;10675;47.976;7.824;2023-05-10T02:27:27;13.50;99.90
21033;DHT22;10675;47.976;7.824;2023-05-10T02:29:53;13.50;99.90
21033;DHT22;10675;47.976;7.824;2023-05-10T02:32:21;13.50;99.90
21033;DHT22;10675;47.976;7.824;2023-05-10T02:34:48;13.40;99.90
21033;DHT22;10675;47.976;7.824;2023-05-10T02:37:19;13.40;99.90
21033;DHT22;10675;47.976;7.824;2023-05-10T02:39:47;13.40;99.90
21033;DHT22;10675;47.976;7.824;2023-05-10T02:42:16;13.40;99.90
21033;DHT22;10675;47.976;7.824;2023-05-10T02:44:43;13.40;99.90
21033;DHT22;10675;47.976;7.824;2023-05-10T02:47:11;13.40;99.90
21033;DHT22;10675;47.976;7.824;2023-05-10T02:49:36;13.40;99.90
21033;DHT22;10675;47.976;7.824;2023-05-10T02:52:04;13.40;99.90
21033;DHT22;10675;47.976;7.824;2023-05-10T02:54:33;13.40;99.90
21033;DHT22;10675;47.976;7.824;2023-05-10T02:57:04;13.30;99.90
21033;DHT22;10675;47.976;7.824;2023-05-10T02:59:31;13.40;99.90
21033;DHT22;10675;47.976;7.824;2023-05-10T03:01:58;13.30;99.90
21033;DHT22;10675;47.976;7.824;2023-05-10T03:04:25;13.30;99.90
21033;DHT22;10675;47.976;7.824;2023-05-10T03:06:51;13.30;99.90
21033;DHT22;10675;47.976;7.824;2023-05-10T03:09:17;13.30;99.90
21033;DHT22;10675;47.976;7.824;2023-05-10T03:14:41;13.30;99.90
21033;DHT22;10675;47.976;7.824;2023-05-10T03:19:56;13.20;99.90
21033;DHT22;10675;47.976;7.824;2023-05-10T03:22:29;13.20;99.90
21033;DHT22;10675;47.976;7.824;2023-05-10T03:24:56;13.20;99.90
21033;DHT22;10675;47.976;7.824;2023-05-10T03:27:25;13.20;99.90
21033;DHT22;10675;47.976;7.824;2023-05-10T03:29:53;13.20;99.90
21033;DHT22;10675;47.976;7.824;2023-05-10T03:32:19;13.20;99.90
21033;DHT22;10675;47.976;7.824;2023-05-10T03:34:44;13.20;99.90
21033;DHT22;10675;47.976;7.824;2023-05-10T03:37:10;13.20;99.90
21033;DHT22;10675;47.976;7.824;2023-05-10T03:39:35;13.20;99.90
21033;DHT22;10675;47.976;7.824;2023-05-10T03:42:01;13.20;99.90
21033;DHT22;10675;47.976;7.824;2023-05-10T03:44:26;13.20;99.90
21033;DHT22;10675;47.976;7.824;2023-05-10T03:46:52;13.20;99.90
21033;DHT22;10675;47.976;7.824;2023-05-10T03:49:18;13.20;99.90
21033;DHT22;10675;47.976;7.824;2023-05-10T03:51:43;13.20;99.90
21033;DHT22;10675;47.976;7.824;2023-05-10T03:54:09;13.10;99.90
21033;DHT22;10675;47.976;7.824;2023-05-10T03:56:34;13.10;99.90
21033;DHT22;10675;47.976;7.824;2023-05-10T03:59:00;13.10;99.90
21033;DHT22;10675;47.976;7.824;2023-05-10T04:01:25;13.10;99.90
21033;DHT22;10675;47.976;7.824;2023-05-10T04:03:51;13.10;99.90
21033;DHT22;10675;47.976;7.824;2023-05-10T04:06:16;13.10;99.90
21033;DHT22;10675;47.976;7.824;2023-05-10T04:08:42;13.10;99.90
21033;DHT22;10675;47.976;7.824;2023-05-10T04:11:09;13.10;99.90
21033;DHT22;10675;47.976;7.824;2023-05-10T04:13:35;13.00;99.90
21033;DHT22;10675;47.976;7.824;2023-05-10T04:16:01;13.00;99.90
21033;DHT22;10675;47.976;7.824;2023-05-10T04:18:27;13.10;99.90
21033;DHT22;10675;47.976;7.824;2023-05-10T04:20:52;13.00;99.90
21033;DHT22;10675;47.976;7.824;2023-05-10T04:23:18;13.10;99.90
21033;DHT22;10675;47.976;7.824;2023-05-10T04:25:43;13.10;99.90
21033;DHT22;10675;47.976;7.824;2023-05-10T04:28:09;13.10;99.90
21033;DHT22;10675;47.976;7.824;2023-05-10T04:30:34;13.10;99.90
21033;DHT22;10675;47.976;7.824;2023-05-10T04:33:00;13.10;99.90
21033;DHT22;10675;47.976;7.824;2023-05-10T04:35:27;13.10;99.90
21033;DHT22;10675;47.976;7.824;2023-05-10T04:37:53;13.20;99.90
21033;DHT22;10675;47.976;7.824;2023-05-10T04:40:19;13.20;99.90
21033;DHT22;10675;47.976;7.824;2023-05-10T04:42:45;13.20;99.90
21033;DHT22;10675;47.976;7.824;2023-05-10T04:45:11;13.20;99.90
21033;DHT22;10675;47.976;7.824;2023-05-10T04:47:36;13.20;99.90
21033;DHT22;10675;47.976;7.824;2023-05-10T04:50:05;13.20;99.90
21033;DHT22;10675;47.976;7.824;2023-05-10T04:52:31;13.20;99.90
21033;DHT22;10675;47.976;7.824;2023-05-10T04:54:57;13.20;99.90
21033;DHT22;10675;47.976;7.824;2023-05-10T04:57:23;13.20;99.90
21033;DHT22;10675;47.976;7.824;2023-05-10T04:59:48;13.20;99.90
21033;DHT22;10675;47.976;7.824;2023-05-10T05:02:14;13.20;99.90
21033;DHT22;10675;47.976;7.824;2023-05-10T05:04:39;13.30;99.90
21033;DHT22;10675;47.976;7.824;2023-05-10T05:07:05;13.30;99.90
21033;DHT22;10675;47.976;7.824;2023-05-10T05:09:30;13.40;99.90
21033;DHT22;10675;47.976;7.824;2023-05-10T05:11:57;13.60;99.90
21033;DHT22;10675;47.976;7.824;2023-05-10T05:14:23;13.60;99.90
21033;DHT22;10675;47.976;7.824;2023-05-10T05:16:53;13.70;99.90
21033;DHT22;10675;47.976;7.824;2023-05-10T05:19:18;13.70;99.90
21033;DHT22;10675;47.976;7.824;2023-05-10T05:21:44;13.70;99.90
21033;DHT22;10675;47.976;7.824;2023-05-10T05:24:09;13.70;99.90
21033;DHT22;10675;47.976;7.824;2023-05-10T05:26:36;13.60;99.90
21033;DHT22;10675;47.976;7.824;2023-05-10T05:29:02;13.40;99.90
21033;DHT22;10675;47.976;7.824;2023-05-10T05:31:28;13.40;99.90
21033;DHT22;10675;47.976;7.824;2023-05-10T05:33:53;13.40;99.90
21033;DHT22;10675;47.976;7.824;2023-05-10T05:36:19;13.30;99.90
21033;DHT22;10675;47.976;7.824;2023-05-10T05:38:44;13.30;99.90
21033;DHT22;10675;47.976;7.824;2023-05-10T05:41:10;13.30;99.90
21033;DHT22;10675;47.976;7.824;2023-05-10T05:43:35;13.30;99.90
21033;DHT22;10675;47.976;7.824;2023-05-10T05:46:01;13.30;99.90
21033;DHT22;10675;47.976;7.824;2023-05-10T05:48:26;13.20;99.90
21033;DHT22;10675;47.976;7.824;2023-05-10T05:50:56;13.20;99.90
21033;DHT22;10675;47.976;7.824;2023-05-10T05:53:22;13.10;99.90
21033;DHT22;10675;47.976;7.824;2023-05-10T05:55:52;13.00;99.90
21033;DHT22;10675;47.976;7.824;2023-05-10T05:58:18;13.10;99.90
21033;DHT22;10675;47.976;7.824;2023-05-10T06:00:43;13.10;99.90
21033;DHT22;10675;47.976;7.824;2023-05-10T06:03:09;13.10;99.90
21033;DHT22;10675;47.976;7.824;2023-05-10T06:05:34;13.10;99.90
21033;DHT22;10675;47.976;7.824;2023-05-10T06:08:00;13.10;99.90
21033;DHT22;10675;47.976;7.824;2023-05-10T06:10:26;13.10;99.90
21033;DHT22;10675;47.976;7.824;2023-05-10T06:12:51;13.10;99.90
21033;DHT22;10675;47.976;7.824;2023-05-10T06:15:18;13.00;99.90
21033;DHT22;10675;47.976;7.824;2023-05-10T06:17:43;13.00;99.90
21033;DHT22;10675;47.976;7.824;2023-05-10T06:20:09;13.00;99.90
21033;DHT22;10675;47.976;7.824;2023-05-10T06:22:35;13.10;99.90
21033;DHT22;10675;47.976;7.824;2023-05-10T06:25:01;13.00;99.90
21033;DHT22;10675;47.976;7.824;2023-05-10T06:27:27;13.10;99.90
21033;DHT22;10675;47.976;7.824;2023-05-10T06:29:52;13.00;99.90
21033;DHT22;10675;47.976;7.824;2023-05-10T06:32:18;13.10;99.90
21033;DHT22;10675;47.976;7.824;2023-05-10T06:34:43;13.00;99.90
21033;DHT22;10675;47.976;7.824;2023-05-10T06:37:09;13.00;99.90
21033;DHT22;10675;47.976;7.824;2023-05-10T06:39:35;13.10;99.90
21033;DHT22;10675;47.976;7.824;2023-05-10T06:42:02;13.00;99.90
21033;DHT22;10675;47.976;7.824;2023-05-10T06:44:27;13.10;99.90
21033;DHT22;10675;47.976;7.824;2023-05-10T06:46:54;13.20;99.90
21033;DHT22;10675;47.976;7.824;2023-05-10T06:49:21;13.10;99.90
21033;DHT22;10675;47.976;7.824;2023-05-10T06:51:46;13.20;99.90
21033;DHT22;10675;47.976;7.824;2023-05-10T06:54:12;13.20;99.90
21033;DHT22;10675;47.976;7.824;2023-05-10T06:56:37;13.30;99.90
21033;DHT22;10675;47.976;7.824;2023-05-10T06:59:03;13.20;99.90
21033;DHT22;10675;47.976;7.824;2023-05-10T07:01:28;13.20;99.90
21033;DHT22;10675;47.976;7.824;2023-05-10T07:03:54;13.30;99.90
21033;DHT22;10675;47.976;7.824;2023-05-10T07:06:19;13.30;99.90
21033;DHT22;10675;47.976;7.824;2023-05-10T07:08:45;13.30;99.90
21033;DHT22;10675;47.976;7.824;2023-05-10T07:11:10;13.30;99.90
21033;DHT22;10675;47.976;7.824;2023-05-10T07:13:36;13.50;99.90
21033;DHT22;10675;47.976;7.824;2023-05-10T07:16:03;13.50;99.90
21033;DHT22;10675;47.976;7.824;2023-05-10T07:18:29;13.60;99.90
21033;DHT22;10675;47.976;7.824;2023-05-10T07:20:54;13.70;99.90
21033;DHT22;10675;47.976;7.824;2023-05-10T07:23:20;13.60;99.90
21033;DHT22;10675;47.976;7.824;2023-05-10T07:25:47;13.60;99.90
21033;DHT22;10675;47.976;7.824;2023-05-10T07:28:15;13.60;99.90
21033;DHT22;10675;47.976;7.824;2023-05-10T07:30:41;13.60;99.90
21033;DHT22;10675;47.976;7.824;2023-05-10T07:33:08;13.70;99.90
21033;DHT22;10675;47.976;7.824;2023-05-10T07:35:34;13.60;99.90
21033;DHT22;10675;47.976;7.824;2023-05-10T07:38:00;13.70;99.90
21033;DHT22;10675;47.976;7.824;2023-05-10T07:40:25;13.80;99.90
21033;DHT22;10675;47.976;7.824;2023-05-10T07:42:51;13.80;99.90
21033;DHT22;10675;47.976;7.824;2023-05-10T07:45:17;13.80;99.90
21033;DHT22;10675;47.976;7.824;2023-05-10T07:47:43;13.90;99.90
21033;DHT22;10675;47.976;7.824;2023-05-10T07:50:08;13.90;99.90
21033;DHT22;10675;47.976;7.824;2023-05-10T07:52:34;14.00;99.90
21033;DHT22;10675;47.976;7.824;2023-05-10T07:54:59;14.10;99.90
21033;DHT22;10675;47.976;7.824;2023-05-10T07:57:25;14.20;99.90
21033;DHT22;10675;47.976;7.824;2023-05-10T07:59:50;14.30;99.90
21033;DHT22;10675;47.976;7.824;2023-05-10T08:02:16;14.30;99.90
21033;DHT22;10675;47.976;7.824;2023-05-10T08:04:41;14.30;99.90
21033;DHT22;10675;47.976;7.824;2023-05-10T08:07:07;14.30;99.90
21033;DHT22;10675;47.976;7.824;2023-05-10T08:09:33;14.50;99.90
21033;DHT22;10675;47.976;7.824;2023-05-10T08:11:58;14.60;99.90
21033;DHT22;10675;47.976;7.824;2023-05-10T08:14:25;14.90;99.90
21033;DHT22;10675;47.976;7.824;2023-05-10T08:16:51;15.00;99.90
21033;DHT22;10675;47.976;7.824;2023-05-10T08:19:16;15.10;99.90
21033;DHT22;10675;47.976;7.824;2023-05-10T08:21:45;15.40;99.90
21033;DHT22;10675;47.976;7.824;2023-05-10T08:24:10;15.40;99.90
21033;DHT22;10675;47.976;7.824;2023-05-10T08:26:36;15.40;99.90
21033;DHT22;10675;47.976;7.824;2023-05-10T08:29:02;15.60;99.90
21033;DHT22;10675;47.976;7.824;2023-05-10T08:31:27;15.90;99.90
21033;DHT22;10675;47.976;7.824;2023-05-10T08:33:53;16.00;99.90
21033;DHT22;10675;47.976;7.824;2023-05-10T08:36:18;16.00;99.90
21033;DHT22;10675;47.976;7.824;2023-05-10T08:38:49;16.00;99.90
21033;DHT22;10675;47.976;7.824;2023-05-10T08:41:15;16.10;99.90
21033;DHT22;10675;47.976;7.824;2023-05-10T08:43:41;16.00;99.90
21033;DHT22;10675;47.976;7.824;2023-05-10T08:46:15;16.10;99.90
21033;DHT22;10675;47.976;7.824;2023-05-10T08:48:42;16.10;99.90
21033;DHT22;10675;47.976;7.824;2023-05-10T08:51:09;16.00;99.90
21033;DHT22;10675;47.976;7.824;2023-05-10T08:53:37;16.20;99.90
21033;DHT22;10675;47.976;7.824;2023-05-10T08:56:03;16.40;99.90
21033;DHT22;10675;47.976;7.824;2023-05-10T08:58:29;16.30;99.90
21033;DHT22;10675;47.976;7.824;2023-05-10T09:00:55;16.40;99.90
21033;DHT22;10675;47.976;7.824;2023-05-10T09:03:21;16.40;99.90
21033;DHT22;10675;47.976;7.824;2023-05-10T09:05:47;16.50;99.90
21033;DHT22;10675;47.976;7.824;2023-05-10T09:08:13;16.50;99.90
21033;DHT22;10675;47.976;7.824;2023-05-10T09:10:45;16.30;99.90
21033;DHT22;10675;47.976;7.824;2023-05-10T09:13:13;16.50;99.90
21033;DHT22;10675;47.976;7.824;2023-05-10T09:15:40;16.60;99.90
21033;DHT22;10675;47.976;7.824;2023-05-10T09:18:05;16.40;99.90
21033;DHT22;10675;47.976;7.824;2023-05-10T09:20:31;16.30;99.90
21033;DHT22;10675;47.976;7.824;2023-05-10T09:22:57;16.00;99.90
21033;DHT22;10675;47.976;7.824;2023-05-10T09:25:22;15.80;99.90
21033;DHT22;10675;47.976;7.824;2023-05-10T09:27:48;15.80;99.90
21033;DHT22;10675;47.976;7.824;2023-05-10T09:32:52;16.60;99.90
21033;DHT22;10675;47.976;7.824;2023-05-10T09:35:20;16.10;99.90
21033;DHT22;10675;47.976;7.824;2023-05-10T09:37:48;15.80;99.90
21033;DHT22;10675;47.976;7.824;2023-05-10T09:40:19;15.80;99.90
21033;DHT22;10675;47.976;7.824;2023-05-10T09:43:01;15.90;99.90
21033;DHT22;10675;47.976;7.824;2023-05-10T09:45:32;15.90;99.90
21033;DHT22;10675;47.976;7.824;2023-05-10T09:47:59;16.40;99.90
21033;DHT22;10675;47.976;7.824;2023-05-10T09:50:27;16.50;99.90
21033;DHT22;10675;47.976;7.824;2023-05-10T09:55:24;16.80;99.90
21033;DHT22;10675;47.976;7.824;2023-05-10T09:57:58;17.20;99.90
21033;DHT22;10675;47.976;7.824;2023-05-10T10:00:26;17.00;98.30
21033;DHT22;10675;47.976;7.824;2023-05-10T10:02:57;16.80;99.40
21033;DHT22;10675;47.976;7.824;2023-05-10T10:05:33;16.90;99.90
21033;DHT22;10675;47.976;7.824;2023-05-10T10:08:00;16.80;99.30
21033;DHT22;10675;47.976;7.824;2023-05-10T10:10:26;16.90;98.70
21033;DHT22;10675;47.976;7.824;2023-05-10T10:12:53;16.80;98.40
21033;DHT22;10675;47.976;7.824;2023-05-10T10:15:20;17.10;98.50
21033;DHT22;10675;47.976;7.824;2023-05-10T10:17:46;17.40;99.20
21033;DHT22;10675;47.976;7.824;2023-05-10T10:20:13;17.30;96.70
21033;DHT22;10675;47.976;7.824;2023-05-10T10:22:39;17.10;96.40
21033;DHT22;10675;47.976;7.824;2023-05-10T10:25:05;16.90;96.40
21033;DHT22;10675;47.976;7.824;2023-05-10T10:30:43;16.60;98.30
21033;DHT22;10675;47.976;7.824;2023-05-10T10:36:12;16.90;94.80
21033;DHT22;10675;47.976;7.824;2023-05-10T10:41:29;16.90;95.70
21033;DHT22;10675;47.976;7.824;2023-05-10T10:52:28;17.60;93.70
21033;DHT22;10675;47.976;7.824;2023-05-10T10:55:12;17.30;92.00
21033;DHT22;10675;47.976;7.824;2023-05-10T11:00:19;18.00;92.60
21033;DHT22;10675;47.976;7.824;2023-05-10T11:02:47;18.20;91.60
21033;DHT22;10675;47.976;7.824;2023-05-10T11:05:45;18.30;91.40
21033;DHT22;10675;47.976;7.824;2023-05-10T11:08:19;18.20;92.20
21033;DHT22;10675;47.976;7.824;2023-05-10T11:11:13;18.10;92.00
21033;DHT22;10675;47.976;7.824;2023-05-10T11:13:44;17.80;91.50
21033;DHT22;10675;47.976;7.824;2023-05-10T11:19:04;17.70;92.00
21033;DHT22;10675;47.976;7.824;2023-05-10T11:21:32;17.70;91.70
21033;DHT22;10675;47.976;7.824;2023-05-10T11:23:59;17.70;92.40
21033;DHT22;10675;47.976;7.824;2023-05-10T11:26:29;17.60;91.50
21033;DHT22;10675;47.976;7.824;2023-05-10T11:28:55;17.50;92.20
21033;DHT22;10675;47.976;7.824;2023-05-10T11:31:21;17.30;90.70
21033;DHT22;10675;47.976;7.824;2023-05-10T11:33:49;17.30;90.90
21033;DHT22;10675;47.976;7.824;2023-05-10T11:36:27;17.20;92.10
21033;DHT22;10675;47.976;7.824;2023-05-10T11:38:53;17.20;92.10
21033;DHT22;10675;47.976;7.824;2023-05-10T11:41:20;17.10;90.50
21033;DHT22;10675;47.976;7.824;2023-05-10T11:43:48;17.10;91.70
21033;DHT22;10675;47.976;7.824;2023-05-10T11:46:15;17.20;91.10
21033;DHT22;10675;47.976;7.824;2023-05-10T11:48:42;17.10;91.10
21033;DHT22;10675;47.976;7.824;2023-05-10T11:51:09;16.90;91.30
21033;DHT22;10675;47.976;7.824;2023-05-10T11:53:35;16.80;92.50
21033;DHT22;10675;47.976;7.824;2023-05-10T11:56:05;16.90;93.60
21033;DHT22;10675;47.976;7.824;2023-05-10T11:58:32;16.90;91.40
21033;DHT22;10675;47.976;7.824;2023-05-10T12:00:59;16.90;91.90
21033;DHT22;10675;47.976;7.824;2023-05-10T12:03:25;17.10;91.70
21033;DHT22;10675;47.976;7.824;2023-05-10T12:05:51;17.00;89.20
21033;DHT22;10675;47.976;7.824;2023-05-10T12:08:21;17.20;90.10
21033;DHT22;10675;47.976;7.824;2023-05-10T12:10:47;17.10;86.00
21033;DHT22;10675;47.976;7.824;2023-05-10T12:13:16;17.00;86.50
21033;DHT22;10675;47.976;7.824;2023-05-10T12:15:42;17.00;86.20
21033;DHT22;10675;47.976;7.824;2023-05-10T12:18:12;17.00;85.60
21033;DHT22;10675;47.976;7.824;2023-05-10T12:20:38;16.90;84.20
21033;DHT22;10675;47.976;7.824;2023-05-10T12:23:05;16.90;84.80
21033;DHT22;10675;47.976;7.824;2023-05-10T12:25:33;16.70;83.70
21033;DHT22;10675;47.976;7.824;2023-05-10T12:28:00;16.70;87.60
21033;DHT22;10675;47.976;7.824;2023-05-10T12:30:29;16.80;88.20
21033;DHT22;10675;47.976;7.824;2023-05-10T12:33:00;16.90;87.70
21033;DHT22;10675;47.976;7.824;2023-05-10T12:35:29;16.60;89.20
21033;DHT22;10675;47.976;7.824;2023-05-10T12:37:55;16.20;91.30
21033;DHT22;10675;47.976;7.824;2023-05-10T12:40:20;16.00;92.50
21033;DHT22;10675;47.976;7.824;2023-05-10T12:42:46;15.90;93.40
21033;DHT22;10675;47.976;7.824;2023-05-10T12:45:11;15.60;93.80
21033;DHT22;10675;47.976;7.824;2023-05-10T12:47:37;15.60;93.70
21033;DHT22;10675;47.976;7.824;2023-05-10T12:50:03;15.70;93.60
21033;DHT22;10675;47.976;7.824;2023-05-10T12:52:30;16.00;94.80
21033;DHT22;10675;47.976;7.824;2023-05-10T12:54:57;16.20;92.90
21033;DHT22;10675;47.976;7.824;2023-05-10T12:57:23;16.70;94.00
21033;DHT22;10675;47.976;7.824;2023-05-10T12:59:49;16.60;90.20
21033;DHT22;10675;47.976;7.824;2023-05-10T13:02:15;16.50;90.90
21033;DHT22;10675;47.976;7.824;2023-05-10T13:04:43;16.50;89.40
21033;DHT22;10675;47.976;7.824;2023-05-10T13:07:09;16.50;89.20
21033;DHT22;10675;47.976;7.824;2023-05-10T13:09:34;16.60;91.00
21033;DHT22;10675;47.976;7.824;2023-05-10T13:12:00;16.30;90.50
21033;DHT22;10675;47.976;7.824;2023-05-10T13:14:26;16.40;92.30
21033;DHT22;10675;47.976;7.824;2023-05-10T13:16:52;16.40;92.30
21033;DHT22;10675;47.976;7.824;2023-05-10T13:19:17;16.30;92.40
21033;DHT22;10675;47.976;7.824;2023-05-10T13:21:43;16.30;92.40
21033;DHT22;10675;47.976;7.824;2023-05-10T13:24:10;16.20;92.70
21033;DHT22;10675;47.976;7.824;2023-05-10T13:26:36;16.30;95.30
21033;DHT22;10675;47.976;7.824;2023-05-10T13:29:02;16.50;95.60
21033;DHT22;10675;47.976;7.824;2023-05-10T13:31:28;16.80;96.70
21033;DHT22;10675;47.976;7.824;2023-05-10T13:33:54;17.00;95.90
21033;DHT22;10675;47.976;7.824;2023-05-10T13:36:19;17.00;93.70
21033;DHT22;10675;47.976;7.824;2023-05-10T13:38:45;16.80;94.20
21033;DHT22;10675;47.976;7.824;2023-05-10T13:41:10;16.80;93.00
21033;DHT22;10675;47.976;7.824;2023-05-10T13:43:36;16.90;94.50
21033;DHT22;10675;47.976;7.824;2023-05-10T13:46:02;17.10;94.90
21033;DHT22;10675;47.976;7.824;2023-05-10T13:50:55;17.10;92.50
21033;DHT22;10675;47.976;7.824;2023-05-10T13:53:21;16.50;91.10
21033;DHT22;10675;47.976;7.824;2023-05-10T13:55:47;16.50;92.10
21033;DHT22;10675;47.976;7.824;2023-05-10T13:58:12;16.70;93.10
21033;DHT22;10675;47.976;7.824;2023-05-10T14:00:38;16.90;92.40
21033;DHT22;10675;47.976;7.824;2023-05-10T14:03:03;17.30;90.60
21033;DHT22;10675;47.976;7.824;2023-05-10T14:05:30;17.40;89.30
21033;DHT22;10675;47.976;7.824;2023-05-10T14:07:56;18.10;87.60
21033;DHT22;10675;47.976;7.824;2023-05-10T14:10:21;18.30;84.20
21033;DHT22;10675;47.976;7.824;2023-05-10T14:12:47;18.30;83.90
21033;DHT22;10675;47.976;7.824;2023-05-10T14:15:13;18.40;86.60
21033;DHT22;10675;47.976;7.824;2023-05-10T14:17:38;18.30;87.20
21033;DHT22;10675;47.976;7.824;2023-05-10T14:20:04;18.20;87.20
21033;DHT22;10675;47.976;7.824;2023-05-10T14:22:30;18.10;88.30
21033;DHT22;10675;47.976;7.824;2023-05-10T14:24:55;17.90;90.50
21033;DHT22;10675;47.976;7.824;2023-05-10T14:27:21;17.50;92.00
21033;DHT22;10675;47.976;7.824;2023-05-10T14:29:47;17.20;92.40
21033;DHT22;10675;47.976;7.824;2023-05-10T14:32:13;17.00;92.90
21033;DHT22;10675;47.976;7.824;2023-05-10T14:34:38;16.60;92.80
21033;DHT22;10675;47.976;7.824;2023-05-10T14:37:04;16.80;93.90
21033;DHT22;10675;47.976;7.824;2023-05-10T14:39:30;16.80;93.10
21033;DHT22;10675;47.976;7.824;2023-05-10T14:41:56;16.60;92.40
21033;DHT22;10675;47.976;7.824;2023-05-10T14:44:21;16.60;92.40
21033;DHT22;10675;47.976;7.824;2023-05-10T14:46:47;16.40;91.40
21033;DHT22;10675;47.976;7.824;2023-05-10T14:49:13;16.40;91.80
21033;DHT22;10675;47.976;7.824;2023-05-10T14:51:39;16.50;92.00
21033;DHT22;10675;47.976;7.824;2023-05-10T14:54:04;16.50;91.30
21033;DHT22;10675;47.976;7.824;2023-05-10T14:56:30;16.50;92.10
21033;DHT22;10675;47.976;7.824;2023-05-10T14:58:56;16.60;92.60
21033;DHT22;10675;47.976;7.824;2023-05-10T15:01:21;16.60;91.50
21033;DHT22;10675;47.976;7.824;2023-05-10T15:03:47;16.80;92.10
21033;DHT22;10675;47.976;7.824;2023-05-10T15:06:14;17.00;92.50
21033;DHT22;10675;47.976;7.824;2023-05-10T15:08:41;17.20;93.10
21033;DHT22;10675;47.976;7.824;2023-05-10T15:11:06;17.30;92.70
21033;DHT22;10675;47.976;7.824;2023-05-10T15:13:32;17.30;92.90
21033;DHT22;10675;47.976;7.824;2023-05-10T15:15:57;17.10;91.80
21033;DHT22;10675;47.976;7.824;2023-05-10T15:18:23;17.20;92.60
21033;DHT22;10675;47.976;7.824;2023-05-10T15:20:48;17.20;93.00
21033;DHT22;10675;47.976;7.824;2023-05-10T15:23:14;17.20;93.20
21033;DHT22;10675;47.976;7.824;2023-05-10T15:25:39;17.20;91.20
21033;DHT22;10675;47.976;7.824;2023-05-10T15:28:05;17.30;87.90
21033;DHT22;10675;47.976;7.824;2023-05-10T15:30:30;17.70;89.00
21033;DHT22;10675;47.976;7.824;2023-05-10T15:32:56;18.00;84.80
21033;DHT22;10675;47.976;7.824;2023-05-10T15:35:22;18.20;87.60
21033;DHT22;10675;47.976;7.824;2023-05-10T15:37:48;18.50;86.60
21033;DHT22;10675;47.976;7.824;2023-05-10T15:40:14;18.60;85.80
21033;DHT22;10675;47.976;7.824;2023-05-10T15:42:40;18.70;87.40
21033;DHT22;10675;47.976;7.824;2023-05-10T15:45:06;18.70;86.90
21033;DHT22;10675;47.976;7.824;2023-05-10T15:47:32;18.20;85.90
21033;DHT22;10675;47.976;7.824;2023-05-10T15:49:58;17.80;87.20
21033;DHT22;10675;47.976;7.824;2023-05-10T15:52:23;17.50;89.20
21033;DHT22;10675;47.976;7.824;2023-05-10T15:54:50;16.90;88.30
21033;DHT22;10675;47.976;7.824;2023-05-10T15:57:15;16.90;88.80
21033;DHT22;10675;47.976;7.824;2023-05-10T15:59:41;17.20;90.00
21033;DHT22;10675;47.976;7.824;2023-05-10T16:02:08;17.30;90.20
21033;DHT22;10675;47.976;7.824;2023-05-10T16:04:35;17.50;89.70
21033;DHT22;10675;47.976;7.824;2023-05-10T16:07:01;17.60;88.00
21033;DHT22;10675;47.976;7.824;2023-05-10T16:09:26;17.40;90.00
21033;DHT22;10675;47.976;7.824;2023-05-10T16:11:52;17.30;91.10
21033;DHT22;10675;47.976;7.824;2023-05-10T16:14:17;16.90;91.10
21033;DHT22;10675;47.976;7.824;2023-05-10T16:16:45;16.80;92.60